createdAt,value
2023-01-21T00:01:07.760Z,93.83
2023-01-21T00:03:34.796Z,93.89
2023-01-21T00:06:01.954Z,93.65
2023-01-21T00:08:28.863Z,94.39
2023-01-21T00:10:55.700Z,94.85
2023-01-21T00:13:22.791Z,96.32
2023-01-21T00:15:49.853Z,95.85
2023-01-21T00:18:16.712Z,96.01
2023-01-21T00:20:45.636Z,96.23
2023-01-21T00:23:13.075Z,96.22
2023-01-21T00:25:39.804Z,96.95
2023-01-21T00:28:06.649Z,97.48
2023-01-21T00:30:33.714Z,97.16
2023-01-21T00:33:00.500Z,96.99
2023-01-21T00:35:27.250Z,96.79
2023-01-21T00:37:54.056Z,96.65
2023-01-21T00:40:21.673Z,96.33
2023-01-21T00:42:48.447Z,95.58
2023-01-21T00:45:15.334Z,95.04
2023-01-21T00:47:42.196Z,94.50
2023-01-21T00:50:10.209Z,94.56
2023-01-21T00:52:37.163Z,94.42
2023-01-21T00:55:04.705Z,94.45
2023-01-21T00:57:31.652Z,94.04
2023-01-21T00:59:58.552Z,94.07
2023-01-21T01:02:25.393Z,94.28
2023-01-21T01:04:52.176Z,94.42
2023-01-21T01:07:18.933Z,94.63
2023-01-21T01:09:45.659Z,95.33
2023-01-21T01:12:12.389Z,95.45
2023-01-21T01:14:39.131Z,95.69
2023-01-21T01:17:05.865Z,95.99
2023-01-21T01:19:32.577Z,96.92
2023-01-21T01:21:59.408Z,96.66
2023-01-21T01:24:26.121Z,97.01
2023-01-21T01:26:52.915Z,97.06
2023-01-21T01:29:19.682Z,96.81
2023-01-21T01:31:46.513Z,96.47
2023-01-21T01:34:13.344Z,96.15
2023-01-21T01:36:40.076Z,95.92
2023-01-21T01:39:07.708Z,95.57
2023-01-21T01:41:35.520Z,96.21
2023-01-21T01:44:56.561Z,96.36
2023-01-21T01:47:42.599Z,96.08
2023-01-21T01:50:13.724Z,95.68
2023-01-21T01:52:42.550Z,95.55
2023-01-21T01:55:11.304Z,95.40
2023-01-21T01:57:43.229Z,95.48
2023-01-21T02:00:12.664Z,95.32
2023-01-21T02:02:43.413Z,94.99
2023-01-21T02:05:11.485Z,94.90
2023-01-21T02:07:43.959Z,94.58
2023-01-21T02:10:14.661Z,94.54
2023-01-21T02:12:43.463Z,93.93
2023-01-21T02:15:10.916Z,93.91
2023-01-21T02:17:59.089Z,93.64
2023-01-21T02:21:14.703Z,92.48
2023-01-21T02:24:22.884Z,92.12
2023-01-21T02:27:30.816Z,91.57
2023-01-21T02:30:30.998Z,91.28
2023-01-21T02:33:48.825Z,90.58
2023-01-21T02:36:43.995Z,89.59
2023-01-21T02:39:33.357Z,89.78
2023-01-21T02:42:23.386Z,89.68
2023-01-21T02:45:14.064Z,89.80
2023-01-21T02:48:06.176Z,89.49
2023-01-21T02:50:38.940Z,88.52
2023-01-21T02:53:06.015Z,88.13
2023-01-21T02:55:37.416Z,87.46
2023-01-21T02:58:15.028Z,86.75
2023-01-21T03:01:11.386Z,85.29
2023-01-21T03:04:14.343Z,84.62
2023-01-21T03:06:56.466Z,84.35
2023-01-21T03:09:30.957Z,84.89
2023-01-21T03:12:30.915Z,83.92
2023-01-21T03:15:26.135Z,83.03
2023-01-21T03:17:58.087Z,82.61
2023-01-21T03:20:37.047Z,82.98
2023-01-21T03:23:09.920Z,82.59
2023-01-21T03:25:38.189Z,82.40
2023-01-21T03:28:12.225Z,81.57
2023-01-21T03:30:43.414Z,81.24
2023-01-21T03:33:13.248Z,81.34
2023-01-21T03:35:44.805Z,81.47
2023-01-21T03:38:22.030Z,81.62
2023-01-21T03:41:19.933Z,81.31
2023-01-21T03:43:46.837Z,81.20
2023-01-21T03:46:21.368Z,80.86
2023-01-21T03:49:00.124Z,80.56
2023-01-21T03:51:33.356Z,80.87
2023-01-21T03:54:00.700Z,80.97
2023-01-21T03:56:28.245Z,80.84
2023-01-21T03:58:55.436Z,80.71
2023-01-21T04:01:22.881Z,80.64
2023-01-21T04:03:49.828Z,80.62
2023-01-21T04:06:22.261Z,80.47
2023-01-21T04:08:49.608Z,80.58
2023-01-21T04:11:16.917Z,81.15
2023-01-21T04:13:43.828Z,81.20
2023-01-21T04:16:10.590Z,81.33
2023-01-21T04:18:37.676Z,81.61
2023-01-21T04:21:04.556Z,81.40
2023-01-21T04:23:31.340Z,81.20
2023-01-21T04:25:58.161Z,81.38
2023-01-21T04:28:25.034Z,80.93
2023-01-21T04:30:51.786Z,80.55
2023-01-21T04:33:18.642Z,80.67
2023-01-21T04:35:45.456Z,80.70
2023-01-21T04:38:12.193Z,80.33
2023-01-21T04:40:38.975Z,80.40
2023-01-21T04:43:05.719Z,80.63
2023-01-21T04:45:32.451Z,80.85
2023-01-21T04:47:59.286Z,80.98
2023-01-21T04:50:26.219Z,81.13
2023-01-21T04:52:53.105Z,81.02
2023-01-21T04:55:19.876Z,80.80
2023-01-21T04:57:46.700Z,80.53
2023-01-21T05:00:14.170Z,80.22
2023-01-21T05:02:41.009Z,79.98
2023-01-21T05:05:08.223Z,80.19
2023-01-21T05:07:35.435Z,80.39
2023-01-21T05:10:02.243Z,80.56
2023-01-21T05:12:29.080Z,80.40
2023-01-21T05:14:57.848Z,80.74
2023-01-21T05:17:24.774Z,81.00
2023-01-21T05:19:51.919Z,81.19
2023-01-21T05:22:19.270Z,81.11
2023-01-21T05:24:46.027Z,81.39
2023-01-21T05:27:12.806Z,81.76
2023-01-21T05:29:40.527Z,81.49
2023-01-21T05:32:07.456Z,80.96
2023-01-21T05:34:34.202Z,80.87
2023-01-21T05:37:00.951Z,80.75
2023-01-21T05:39:27.835Z,80.56
2023-01-21T05:41:54.607Z,80.18
2023-01-21T05:44:21.329Z,80.93
2023-01-21T05:46:48.068Z,80.60
2023-01-21T05:49:14.779Z,80.90
2023-01-21T05:51:41.552Z,80.84
2023-01-21T05:54:08.274Z,80.93
2023-01-21T05:56:35.008Z,81.43
2023-01-21T05:59:01.788Z,81.34
2023-01-21T06:01:28.539Z,81.14
2023-01-21T06:03:55.324Z,81.27
2023-01-21T06:06:22.463Z,81.62
2023-01-21T06:08:49.255Z,81.78
2023-01-21T06:11:16.054Z,81.29
2023-01-21T06:13:42.801Z,81.48
2023-01-21T06:16:09.651Z,81.91
2023-01-21T06:18:36.449Z,82.06
2023-01-21T06:21:03.307Z,82.08
2023-01-21T06:23:30.027Z,82.08
2023-01-21T06:26:02.979Z,82.02
2023-01-21T06:28:31.133Z,82.29
2023-01-21T06:30:57.992Z,82.23
2023-01-21T06:33:24.815Z,82.15
2023-01-21T06:35:51.590Z,82.59
2023-01-21T06:38:18.307Z,82.83
2023-01-21T06:40:45.107Z,82.62
2023-01-21T06:43:11.897Z,82.75
2023-01-21T06:45:38.668Z,82.55
2023-01-21T06:48:05.630Z,81.12
2023-01-21T06:50:32.680Z,80.62
2023-01-21T06:52:59.501Z,80.77
2023-01-21T06:55:26.304Z,80.44
2023-01-21T06:57:53.043Z,80.95
2023-01-21T07:00:20.445Z,80.88
2023-01-21T07:02:47.262Z,81.21
2023-01-21T07:05:15.408Z,81.72
2023-01-21T07:07:42.441Z,81.61
2023-01-21T07:10:10.260Z,82.13
2023-01-21T07:12:37.113Z,81.81
2023-01-21T07:15:04.813Z,82.05
2023-01-21T07:17:31.601Z,82.31
2023-01-21T07:19:58.502Z,82.24
2023-01-21T07:22:25.272Z,82.49
2023-01-21T07:24:51.986Z,83.16
2023-01-21T07:27:18.844Z,82.95
2023-01-21T07:29:45.683Z,83.07
2023-01-21T07:32:12.490Z,81.93
2023-01-21T07:34:39.227Z,81.33
2023-01-21T07:37:06.019Z,81.37
2023-01-21T07:39:32.762Z,81.38
2023-01-21T07:41:59.479Z,81.39
2023-01-21T07:44:26.270Z,81.95
2023-01-21T07:46:53.207Z,82.22
2023-01-21T07:49:19.982Z,82.15
2023-01-21T07:51:47.771Z,82.68
2023-01-21T07:54:15.558Z,83.48
2023-01-21T07:56:42.487Z,83.64
2023-01-21T07:59:11.411Z,84.64
2023-01-21T08:01:38.225Z,85.16
2023-01-21T08:04:07.143Z,85.56
2023-01-21T08:06:34.030Z,85.21
2023-01-21T08:09:00.774Z,85.72
2023-01-21T08:11:27.522Z,86.60
2023-01-21T08:13:54.325Z,87.10
2023-01-21T08:16:21.156Z,86.98
2023-01-21T08:18:47.927Z,87.30
2023-01-21T08:21:14.682Z,87.70
2023-01-21T08:23:41.452Z,88.89
2023-01-21T08:26:08.574Z,89.50
2023-01-21T08:28:35.401Z,89.72
2023-01-21T08:31:09.141Z,90.33
2023-01-21T08:33:36.183Z,89.12
2023-01-21T08:36:06.311Z,88.97
2023-01-21T08:38:35.088Z,88.86
2023-01-21T08:41:01.840Z,88.00
2023-01-21T08:43:28.612Z,88.21
2023-01-21T08:46:01.670Z,88.37
2023-01-21T08:48:29.877Z,88.49
2023-01-21T08:51:00.588Z,88.49
2023-01-21T08:53:28.158Z,88.79
2023-01-21T08:56:02.751Z,88.25
2023-01-21T08:58:31.206Z,89.18
2023-01-21T09:00:58.333Z,89.27
2023-01-21T09:03:25.441Z,89.64
2023-01-21T09:05:52.271Z,89.57
2023-01-21T09:08:19.525Z,89.66
2023-01-21T09:11:01.191Z,89.61
2023-01-21T09:13:39.739Z,89.72
2023-01-21T09:16:18.256Z,89.15
2023-01-21T09:18:45.968Z,89.47
2023-01-21T09:21:12.889Z,89.79
2023-01-21T09:23:40.611Z,89.73
2023-01-21T09:26:19.032Z,89.78
2023-01-21T09:28:51.712Z,89.77
2023-01-21T09:31:26.446Z,89.57
2023-01-21T09:34:00.265Z,88.73
2023-01-21T09:36:30.588Z,88.51
2023-01-21T09:38:58.542Z,88.30
2023-01-21T09:41:33.766Z,88.89
2023-01-21T09:44:06.298Z,88.70
2023-01-21T09:46:52.696Z,88.41
2023-01-21T09:49:29.153Z,88.78
2023-01-21T09:52:30.656Z,88.43
2023-01-21T09:54:58.641Z,88.57
2023-01-21T09:57:31.179Z,88.21
2023-01-21T10:00:08.282Z,87.90
2023-01-21T10:03:03.230Z,87.72
2023-01-21T10:06:17.447Z,86.76
2023-01-21T10:08:52.996Z,86.35
2023-01-21T10:11:37.944Z,86.08
2023-01-21T10:14:45.353Z,86.10
2023-01-21T10:17:37.271Z,85.11
2023-01-21T10:20:19.673Z,85.50
2023-01-21T10:22:56.754Z,84.99
2023-01-21T10:25:36.236Z,84.91
2023-01-21T10:28:12.235Z,84.76
2023-01-21T10:30:50.235Z,84.09
2023-01-21T10:33:25.420Z,83.62
2023-01-21T10:36:35.211Z,83.17
2023-01-21T10:39:54.155Z,83.70
2023-01-21T10:42:44.432Z,82.92
2023-01-21T10:45:21.516Z,83.06
2023-01-21T10:48:39.001Z,82.36
2023-01-21T10:51:25.256Z,82.30
2023-01-21T10:54:10.292Z,82.80
2023-01-21T10:56:51.702Z,82.75
2023-01-21T10:59:27.119Z,82.86
2023-01-21T11:02:30.260Z,82.84
2023-01-21T11:04:58.407Z,83.29
2023-01-21T11:07:25.756Z,83.32
2023-01-21T11:09:52.867Z,83.59
2023-01-21T11:12:21.413Z,84.00
2023-01-21T11:14:55.762Z,84.11
2023-01-21T11:17:45.396Z,83.45
2023-01-21T11:20:40.282Z,83.49
2023-01-21T11:23:32.793Z,82.81
2023-01-21T11:26:21.910Z,83.76
2023-01-21T11:28:48.748Z,83.65
2023-01-21T11:31:26.457Z,83.20
2023-01-21T11:33:54.481Z,83.38
2023-01-21T11:36:21.738Z,83.78
2023-01-21T11:39:08.413Z,83.95
2023-01-21T11:41:36.104Z,83.62
2023-01-21T11:44:18.535Z,83.42
2023-01-21T11:46:46.001Z,83.25
2023-01-21T11:49:15.430Z,83.73
2023-01-21T11:51:45.567Z,83.42
2023-01-21T11:54:18.243Z,83.62
2023-01-21T11:56:53.685Z,83.78
2023-01-21T11:59:41.818Z,83.83
2023-01-21T12:02:27.423Z,84.31
2023-01-21T12:04:59.248Z,84.56
2023-01-21T12:07:31.697Z,84.78
2023-01-21T12:10:13.888Z,84.93
2023-01-21T12:12:59.637Z,84.71
2023-01-21T12:16:16.874Z,85.40
2023-01-21T12:18:58.724Z,85.00
2023-01-21T12:21:40.335Z,85.15
2023-01-21T12:24:26.961Z,85.85
2023-01-21T12:27:24.609Z,85.35
2023-01-21T12:30:44.088Z,85.78
2023-01-21T12:33:29.941Z,86.62
2023-01-21T12:36:09.944Z,87.06
2023-01-21T12:38:43.423Z,86.90
2023-01-21T12:41:17.475Z,86.73
2023-01-21T12:43:54.736Z,86.75
2023-01-21T12:46:40.946Z,87.20
2023-01-21T12:49:21.268Z,86.80
2023-01-21T12:51:58.621Z,87.42
2023-01-21T12:54:37.215Z,87.70
2023-01-21T12:57:20.231Z,87.46
2023-01-21T12:59:50.842Z,87.37
2023-01-21T13:02:47.495Z,87.49
2023-01-21T13:05:46.607Z,87.99
2023-01-21T13:08:57.119Z,87.66
2023-01-21T13:11:50.179Z,87.82
2023-01-21T13:14:34.419Z,87.76
2023-01-21T13:17:11.348Z,87.98
2023-01-21T13:19:38.068Z,87.39
2023-01-21T13:22:21.117Z,87.19
2023-01-21T13:25:34.610Z,86.78
2023-01-21T13:28:15.832Z,86.90
2023-01-21T13:31:02.125Z,87.07
2023-01-21T13:33:52.087Z,87.49
2023-01-21T13:37:02.388Z,87.86
2023-01-21T13:39:48.081Z,87.52
2023-01-21T13:42:44.400Z,87.94
2023-01-21T13:45:27.156Z,87.79
2023-01-21T13:48:09.356Z,87.70
2023-01-21T13:51:03.139Z,87.76
2023-01-21T13:54:32.139Z,88.10
2023-01-21T13:57:32.537Z,88.58
2023-01-21T14:00:06.436Z,88.40
2023-01-21T14:02:46.546Z,88.00
2023-01-21T14:05:16.889Z,88.52
2023-01-21T14:07:56.520Z,88.10
2023-01-21T14:10:44.124Z,88.40
2023-01-21T14:13:52.395Z,88.99
2023-01-21T14:16:28.145Z,88.50
2023-01-21T14:19:04.000Z,88.27
2023-01-21T14:22:19.045Z,88.21
2023-01-21T14:25:11.546Z,88.82
2023-01-21T14:27:51.437Z,88.68
2023-01-21T14:30:49.888Z,88.78
2023-01-21T14:33:24.171Z,88.46
2023-01-21T14:36:20.709Z,88.42
2023-01-21T14:39:17.824Z,88.46
2023-01-21T14:42:12.751Z,89.24
2023-01-21T14:45:01.372Z,89.24
2023-01-21T14:47:58.422Z,89.69
2023-01-21T14:50:51.053Z,89.22
2023-01-21T14:53:26.577Z,89.03
2023-01-21T14:56:07.995Z,89.02
2023-01-21T14:58:36.782Z,89.37
2023-01-21T15:01:08.193Z,89.60
2023-01-21T15:03:48.635Z,89.70
2023-01-21T15:06:21.987Z,89.47
2023-01-21T15:08:53.375Z,89.84
2023-01-21T15:11:30.546Z,89.66
2023-01-21T15:14:15.081Z,90.02
2023-01-21T15:16:44.368Z,89.80
2023-01-21T15:19:24.749Z,89.84
2023-01-21T15:22:03.450Z,90.08
2023-01-21T15:24:33.253Z,89.92
2023-01-21T15:27:19.151Z,89.84
2023-01-21T15:30:07.071Z,90.79
2023-01-21T15:32:46.907Z,90.83
2023-01-21T15:35:24.291Z,90.65
2023-01-21T15:37:59.644Z,90.79
2023-01-21T15:40:41.250Z,91.11
2023-01-21T15:44:02.799Z,90.57
2023-01-21T15:46:53.632Z,90.43
2023-01-21T15:49:51.235Z,91.33
2023-01-21T15:52:39.130Z,91.59
2023-01-21T15:55:20.641Z,91.60
2023-01-21T15:58:14.837Z,91.91
2023-01-21T16:01:06.661Z,91.53
2023-01-21T16:03:43.232Z,91.31
2023-01-21T16:06:28.363Z,92.28
2023-01-21T16:09:28.819Z,92.07
2023-01-21T16:12:37.431Z,92.23
2023-01-21T16:15:22.758Z,92.79
2023-01-21T16:18:21.559Z,92.15
2023-01-21T16:20:53.486Z,92.17
2023-01-21T16:23:23.617Z,91.45
2023-01-21T16:25:52.909Z,91.80
2023-01-21T16:28:21.313Z,91.74
2023-01-21T16:30:57.736Z,91.80
2023-01-21T16:33:25.206Z,91.55
2023-01-21T16:36:00.767Z,91.74
2023-01-21T16:38:31.062Z,91.96
2023-01-21T16:41:06.747Z,92.20
2023-01-21T16:43:53.112Z,92.01
2023-01-21T16:46:46.257Z,91.61
2023-01-21T16:49:16.395Z,91.68
2023-01-21T16:51:56.560Z,91.87
2023-01-21T16:54:26.256Z,91.22
2023-01-21T16:57:00.139Z,91.03
2023-01-21T16:59:41.765Z,91.28
2023-01-21T17:02:31.639Z,91.25
2023-01-21T17:05:02.193Z,91.23
2023-01-21T17:07:44.334Z,91.02
2023-01-21T17:10:25.219Z,91.09
2023-01-21T17:13:00.898Z,91.14
2023-01-21T17:15:30.411Z,91.49
2023-01-21T17:18:00.276Z,91.78
2023-01-21T17:21:01.214Z,91.19
2023-01-21T17:23:44.745Z,91.39
2023-01-21T17:26:24.089Z,91.43
2023-01-21T17:29:17.445Z,91.18
2023-01-21T17:31:45.211Z,91.26
2023-01-21T17:34:20.765Z,91.49
2023-01-21T17:36:51.819Z,91.80
2023-01-21T17:39:46.311Z,91.69
2023-01-21T17:42:17.332Z,92.11
2023-01-21T17:44:50.452Z,91.98
2023-01-21T17:47:33.960Z,91.66
2023-01-21T17:50:28.131Z,91.34
2023-01-21T17:53:03.855Z,91.20
2023-01-21T17:55:39.384Z,91.53
2023-01-21T17:58:32.257Z,90.96
2023-01-21T18:01:03.169Z,91.21
2023-01-21T18:03:29.900Z,90.68
2023-01-21T18:05:57.104Z,90.97
2023-01-21T18:08:24.686Z,90.65
2023-01-21T18:10:51.453Z,90.40
2023-01-21T18:13:20.577Z,90.11
2023-01-21T18:15:51.930Z,90.07
2023-01-21T18:18:26.050Z,90.49
2023-01-21T18:20:53.446Z,89.65
2023-01-21T18:23:20.871Z,89.58
2023-01-21T18:25:52.281Z,89.23
2023-01-21T18:28:26.209Z,89.51
2023-01-21T18:30:56.330Z,89.52
2023-01-21T18:33:24.209Z,89.31
2023-01-21T18:35:52.679Z,89.44
2023-01-21T18:38:27.425Z,89.70
2023-01-21T18:40:58.549Z,90.01
2023-01-21T18:43:25.889Z,89.88
2023-01-21T18:45:54.462Z,89.61
2023-01-21T18:48:28.122Z,90.09
2023-01-21T18:50:55.266Z,90.29
2023-01-21T18:53:22.380Z,90.31
2023-01-21T18:55:53.946Z,90.30
2023-01-21T18:58:21.174Z,90.43
2023-01-21T19:00:48.248Z,90.82
2023-01-21T19:03:15.688Z,90.92
2023-01-21T19:05:45.349Z,90.62
2023-01-21T19:08:16.734Z,90.96
2023-01-21T19:10:43.466Z,91.20
2023-01-21T19:13:11.836Z,91.57
2023-01-21T19:15:39.033Z,91.32
2023-01-21T19:18:11.861Z,91.66
2023-01-21T19:20:41.586Z,91.46
2023-01-21T19:23:17.337Z,91.61
2023-01-21T19:25:56.591Z,91.97
2023-01-21T19:28:25.174Z,91.33
2023-01-21T19:30:55.608Z,91.31
2023-01-21T19:33:23.308Z,91.15
2023-01-21T19:35:56.044Z,91.08
2023-01-21T19:38:23.442Z,91.57
2023-01-21T19:40:50.791Z,90.89
2023-01-21T19:43:21.786Z,90.80
2023-01-21T19:45:51.544Z,90.79
2023-01-21T19:48:21.597Z,90.64
2023-01-21T19:50:48.903Z,90.83
2023-01-21T19:53:23.284Z,91.18
2023-01-21T19:55:50.989Z,91.02
2023-01-21T19:58:25.525Z,91.04
2023-01-21T20:00:56.391Z,91.39
2023-01-21T20:03:27.100Z,91.79
2023-01-21T20:05:59.868Z,91.53
2023-01-21T20:12:04.177Z,90.84
2023-01-21T20:14:33.478Z,91.51
2023-01-21T20:17:00.195Z,91.68
2023-01-21T20:19:27.628Z,91.47
2023-01-21T20:22:02.171Z,91.40
2023-01-21T20:24:30.606Z,91.32
2023-01-21T20:26:58.743Z,91.47
2023-01-21T20:29:27.119Z,91.56
2023-01-21T20:31:54.557Z,91.77
2023-01-21T20:34:21.564Z,91.61
2023-01-21T20:36:49.696Z,91.91
2023-01-21T20:39:16.676Z,91.96
2023-01-21T20:41:43.931Z,91.89
2023-01-21T20:44:10.908Z,91.84
2023-01-21T20:46:38.902Z,91.90
2023-01-21T20:49:05.887Z,92.26
2023-01-21T20:51:32.636Z,92.11
2023-01-21T20:53:59.391Z,92.18
2023-01-21T20:56:30.237Z,91.89
2023-01-21T20:58:57.616Z,91.94
2023-01-21T21:01:26.576Z,91.74
2023-01-21T21:03:53.623Z,91.57
2023-01-21T21:06:23.878Z,91.90
2023-01-21T21:08:51.290Z,91.86
2023-01-21T21:11:19.161Z,91.87
2023-01-21T21:13:48.503Z,92.18
2023-01-21T21:16:30.058Z,92.17
2023-01-21T21:18:57.012Z,91.55
2023-01-21T21:21:24.348Z,91.74
2023-01-21T21:23:52.784Z,91.76
2023-01-21T21:26:26.537Z,91.45
2023-01-21T21:28:57.918Z,91.53
2023-01-21T21:31:26.793Z,91.85
2023-01-21T21:33:53.869Z,91.76
2023-01-21T21:36:24.665Z,91.52
2023-01-21T21:38:55.646Z,91.64
2023-01-21T21:41:44.077Z,91.45
2023-01-21T21:44:11.943Z,91.37
2023-01-21T21:46:58.032Z,91.48
2023-01-21T21:49:24.956Z,91.80
2023-01-21T21:51:51.932Z,91.80
2023-01-21T21:54:19.023Z,91.85
2023-01-21T21:56:47.870Z,91.75
2023-01-21T21:59:15.528Z,92.10
2023-01-21T22:01:44.329Z,91.98
2023-01-21T22:04:11.771Z,92.11
2023-01-21T22:06:39.245Z,92.11
2023-01-21T22:09:06.359Z,92.13
2023-01-21T22:11:33.637Z,92.26
2023-01-21T22:14:04.124Z,92.34
2023-01-21T22:16:32.300Z,92.03
2023-01-21T22:19:01.038Z,92.79
2023-01-21T22:21:34.084Z,92.88
2023-01-21T22:24:03.489Z,93.25
2023-01-21T22:26:30.617Z,92.77
2023-01-21T22:28:57.858Z,92.66
2023-01-21T22:31:28.203Z,92.77
2023-01-21T22:33:56.446Z,92.47
2023-01-21T22:36:26.233Z,92.70
2023-01-21T22:38:53.689Z,93.11
2023-01-21T22:41:22.754Z,92.90
2023-01-21T22:43:50.786Z,92.85
2023-01-21T22:46:27.331Z,92.88
2023-01-21T22:48:54.651Z,92.86
2023-01-21T22:51:23.177Z,92.65
2023-01-21T22:53:51.130Z,92.39
2023-01-21T22:56:31.496Z,92.02
2023-01-21T22:59:06.871Z,92.03
2023-01-21T23:01:33.747Z,91.80
2023-01-21T23:04:00.896Z,92.17
2023-01-21T23:06:27.882Z,92.20
2023-01-21T23:08:55.155Z,92.34
2023-01-21T23:11:22.159Z,91.62
2023-01-21T23:13:53.464Z,91.33
2023-01-21T23:16:21.238Z,91.86
2023-01-21T23:18:49.048Z,91.86
2023-01-21T23:21:20.023Z,92.12
2023-01-21T23:23:47.053Z,91.92
2023-01-21T23:26:14.973Z,92.08
2023-01-21T23:28:41.799Z,92.15
2023-01-21T23:31:15.350Z,92.13
2023-01-21T23:33:43.098Z,91.68
2023-01-21T23:36:13.731Z,92.09
2023-01-21T23:38:41.795Z,92.15
2023-01-21T23:41:12.554Z,92.22
2023-01-21T23:43:40.113Z,91.94
2023-01-21T23:46:11.352Z,92.51
2023-01-21T23:48:38.712Z,92.70
2023-01-21T23:51:08.522Z,92.34
2023-01-21T23:53:35.712Z,92.31
2023-01-21T23:56:14.166Z,92.35
2023-01-21T23:58:41.486Z,92.54
